Lee's Summit, MO

8:50 AM CDT on August 27, 2016 (GMT -0500)
Lee's Summit Municipal | | Change Station

Elev 1004 ft 38.96 °N, 94.37 °W | Updated 6 minutes ago

Scattered Clouds
Scattered Clouds
72 °F
Feels Like 72 °F
N
4
Wind Variable Wind from South

Today
High -- | Low -- °F
--% Chance of Precip.
Yesterday
High -- | Low -- °F
Precip. -- in
Pressure 30.06 in
Visibility 10.0 miles
Clouds Scattered Clouds 2500 ft
Dew Point 69 °F
Humidity 91%
Rainfall 0.49 in
Snow Depth Not available.
6:42 AM 7:54 PM
Waning Crescent, 24% visible
SPECI KLXT 271344Z AUTO 19003KT 10SM SCT025 22/21 A3006 RMK AO2 T02220206
Pressure 30.06 in
Visibility 10.0 miles
Clouds Scattered Clouds 2500 ft
Dew Point 69 °F
Humidity 91%
Rainfall 0.49 in
Snow Depth Not available.
6:42 AM 7:54 PM
Waning Crescent, 24% visible
SPECI KLXT 271344Z AUTO 19003KT 10SM SCT025 22/21 A3006 RMK AO2 T02220206

10-Day Weather Forecast

Almanac

Astronomy

Aug. 27, 2016 Rise Set
Actual Time
Civil Twilight
Nautical Twilight
Astronomical Twilight
Moon
Length of Visible Light
Length of Day
Tomorrow will be .
, % of the Moon is Illuminated

Today's Extremes

State Highs State Lows

Community

WunderPhotos

Upload Photos

1,935,339 photos uploaded!

WunderBlog® & News

Nearby

Air Quality

  Air Quality AQ Index Pollutant
Not available.

Snow Depth

Station Depth Elevation

Earthquake Activity

City Distance Mag. Time & Date
Minimum magnitude displayed is 2.5.

Coastal Water Temperatures

Place Temperature

Stations

Nearby Weather Stations

Station Location Temp. Windchill Dew Point Humidity Wind Precip. Elev Updated Type
                   

Watches & Warnings

There are currently no watches in effect.